sensor_id;sensor_type;location;lat;lon;timestamp;pressure;altitude;pressure_sealevel;temperature;humidity
48204;BME280;33994;50.998;5.864;2022-12-31T00:02:39;99929.91;;;11.91;100.00
48204;BME280;33994;50.998;5.864;2022-12-31T00:05:42;99934.22;;;11.92;100.00
48204;BME280;33994;50.998;5.864;2022-12-31T00:08:46;99928.06;;;11.93;100.00
48204;BME280;33994;50.998;5.864;2022-12-31T00:11:49;99937.69;;;11.92;100.00
48204;BME280;33994;50.998;5.864;2022-12-31T00:14:54;99935.06;;;11.92;100.00
48204;BME280;33994;50.998;5.864;2022-12-31T00:17:56;99937.59;;;11.96;100.00
48204;BME280;33994;50.998;5.864;2022-12-31T00:21:03;99934.88;;;11.99;100.00
48204;BME280;33994;50.998;5.864;2022-12-31T00:24:07;99927.88;;;11.99;100.00
48204;BME280;33994;50.998;5.864;2022-12-31T00:27:10;99925.19;;;12.01;100.00
48204;BME280;33994;50.998;5.864;2022-12-31T00:30:15;99926.78;;;12.05;100.00
48204;BME280;33994;50.998;5.864;2022-12-31T00:33:18;99915.41;;;12.06;100.00
48204;BME280;33994;50.998;5.864;2022-12-31T00:36:22;99895.22;;;12.08;100.00
48204;BME280;33994;50.998;5.864;2022-12-31T00:39:26;99908.22;;;12.11;100.00
48204;BME280;33994;50.998;5.864;2022-12-31T00:42:29;99908.13;;;12.14;100.00
48204;BME280;33994;50.998;5.864;2022-12-31T00:45:34;99915.06;;;12.15;100.00
48204;BME280;33994;50.998;5.864;2022-12-31T00:48:37;99910.75;;;12.14;100.00
48204;BME280;33994;50.998;5.864;2022-12-31T00:51:40;99898.41;;;12.16;100.00
48204;BME280;33994;50.998;5.864;2022-12-31T00:54:44;99905.41;;;12.17;100.00
48204;BME280;33994;50.998;5.864;2022-12-31T00:57:47;99891.28;;;12.21;100.00
48204;BME280;33994;50.998;5.864;2022-12-31T01:00:52;99893.75;;;12.26;100.00
48204;BME280;33994;50.998;5.864;2022-12-31T01:03:57;99894.50;;;12.29;100.00
48204;BME280;33994;50.998;5.864;2022-12-31T01:07:01;99889.16;;;12.32;100.00
48204;BME280;33994;50.998;5.864;2022-12-31T01:10:05;99902.13;;;12.35;100.00
48204;BME280;33994;50.998;5.864;2022-12-31T01:13:09;99901.16;;;12.38;100.00
48204;BME280;33994;50.998;5.864;2022-12-31T01:16:13;99900.19;;;12.40;100.00
48204;BME280;33994;50.998;5.864;2022-12-31T01:19:19;99895.72;;;12.43;100.00
48204;BME280;33994;50.998;5.864;2022-12-31T01:22:23;99897.31;;;12.47;100.00
48204;BME280;33994;50.998;5.864;2022-12-31T01:25:26;99875.28;;;12.52;100.00
48204;BME280;33994;50.998;5.864;2022-12-31T01:28:29;99882.13;;;12.56;100.00
48204;BME280;33994;50.998;5.864;2022-12-31T01:31:34;99875.91;;;12.59;100.00
48204;BME280;33994;50.998;5.864;2022-12-31T01:34:38;99895.97;;;12.60;100.00
48204;BME280;33994;50.998;5.864;2022-12-31T01:37:41;99894.13;;;12.62;100.00
48204;BME280;33994;50.998;5.864;2022-12-31T01:40:44;99894.94;;;12.64;100.00
48204;BME280;33994;50.998;5.864;2022-12-31T01:43:49;99883.34;;;12.70;100.00
48204;BME280;33994;50.998;5.864;2022-12-31T01:46:55;99883.03;;;12.77;100.00
48204;BME280;33994;50.998;5.864;2022-12-31T01:50:03;99890.03;;;12.78;100.00
48204;BME280;33994;50.998;5.864;2022-12-31T01:53:08;99885.56;;;12.80;100.00
48204;BME280;33994;50.998;5.864;2022-12-31T01:56:13;99883.84;;;12.79;100.00
48204;BME280;33994;50.998;5.864;2022-12-31T01:59:17;99888.88;;;12.85;100.00
48204;BME280;33994;50.998;5.864;2022-12-31T02:02:24;99885.31;;;12.86;100.00
48204;BME280;33994;50.998;5.864;2022-12-31T02:05:30;99900.09;;;12.89;100.00
48204;BME280;33994;50.998;5.864;2022-12-31T02:08:35;99897.41;;;12.90;100.00
48204;BME280;33994;50.998;5.864;2022-12-31T02:11:39;99888.56;;;12.93;100.00
48204;BME280;33994;50.998;5.864;2022-12-31T02:14:45;99883.06;;;12.99;100.00
48204;BME280;33994;50.998;5.864;2022-12-31T02:17:56;99899.63;;;13.01;100.00
48204;BME280;33994;50.998;5.864;2022-12-31T02:21:34;99901.31;;;13.02;100.00
48204;BME280;33994;50.998;5.864;2022-12-31T02:24:51;99914.31;;;13.05;100.00
48204;BME280;33994;50.998;5.864;2022-12-31T02:28:09;99902.84;;;13.08;100.00
48204;BME280;33994;50.998;5.864;2022-12-31T02:31:23;99921.06;;;13.12;100.00
48204;BME280;33994;50.998;5.864;2022-12-31T02:34:31;99920.97;;;13.14;100.00
48204;BME280;33994;50.998;5.864;2022-12-31T02:37:37;99912.19;;;13.15;100.00
48204;BME280;33994;50.998;5.864;2022-12-31T02:40:42;99930.41;;;13.20;100.00
48204;BME280;33994;50.998;5.864;2022-12-31T02:43:45;99948.81;;;13.18;100.00
48204;BME280;33994;50.998;5.864;2022-12-31T02:46:56;99947.00;;;13.20;100.00
48204;BME280;33994;50.998;5.864;2022-12-31T02:50:12;99966.16;;;13.22;100.00
48204;BME280;33994;50.998;5.864;2022-12-31T02:53:43;99946.00;;;13.23;100.00
48204;BME280;33994;50.998;5.864;2022-12-31T02:56:59;99961.81;;;13.21;100.00
48204;BME280;33994;50.998;5.864;2022-12-31T03:00:09;99965.31;;;13.22;100.00
48204;BME280;33994;50.998;5.864;2022-12-31T03:03:15;99950.47;;;13.21;100.00
48204;BME280;33994;50.998;5.864;2022-12-31T03:06:19;99955.00;;;13.17;100.00
48204;BME280;33994;50.998;5.864;2022-12-31T03:09:22;99980.44;;;13.15;100.00
48204;BME280;33994;50.998;5.864;2022-12-31T03:12:28;99970.06;;;13.12;100.00
48204;BME280;33994;50.998;5.864;2022-12-31T03:15:32;99970.19;;;13.09;100.00
48204;BME280;33994;50.998;5.864;2022-12-31T03:18:37;99978.00;;;13.10;100.00
48204;BME280;33994;50.998;5.864;2022-12-31T03:21:40;99987.53;;;13.13;100.00
48204;BME280;33994;50.998;5.864;2022-12-31T03:24:43;99976.19;;;13.12;100.00
48204;BME280;33994;50.998;5.864;2022-12-31T03:27:47;99982.16;;;13.16;100.00
48204;BME280;33994;50.998;5.864;2022-12-31T03:30:51;99982.16;;;13.16;100.00
48204;BME280;33994;50.998;5.864;2022-12-31T03:33:57;99957.63;;;13.17;100.00
48204;BME280;33994;50.998;5.864;2022-12-31T03:37:00;99968.16;;;13.15;100.00
48204;BME280;33994;50.998;5.864;2022-12-31T03:40:04;99976.00;;;13.17;100.00
48204;BME280;33994;50.998;5.864;2022-12-31T03:43:07;99979.47;;;13.18;100.00
48204;BME280;33994;50.998;5.864;2022-12-31T03:46:10;99981.13;;;13.20;100.00
48204;BME280;33994;50.998;5.864;2022-12-31T03:49:15;99980.22;;;13.21;100.00
48204;BME280;33994;50.998;5.864;2022-12-31T03:52:18;99973.25;;;13.20;100.00
48204;BME280;33994;50.998;5.864;2022-12-31T03:55:22;99966.03;;;13.25;100.00
48204;BME280;33994;50.998;5.864;2022-12-31T03:58:26;99973.81;;;13.28;100.00
48204;BME280;33994;50.998;5.864;2022-12-31T04:01:29;99960.47;;;13.33;100.00
48204;BME280;33994;50.998;5.864;2022-12-31T04:04:33;99976.97;;;13.36;100.00
48204;BME280;33994;50.998;5.864;2022-12-31T04:07:37;99961.22;;;13.36;100.00
48204;BME280;33994;50.998;5.864;2022-12-31T04:10:40;99963.72;;;13.39;100.00
48204;BME280;33994;50.998;5.864;2022-12-31T04:13:43;99983.88;;;13.39;100.00
48204;BME280;33994;50.998;5.864;2022-12-31T04:16:46;99968.97;;;13.39;100.00
48204;BME280;33994;50.998;5.864;2022-12-31T04:19:50;99971.59;;;13.39;100.00
48204;BME280;33994;50.998;5.864;2022-12-31T04:22:53;99981.31;;;13.37;100.00
48204;BME280;33994;50.998;5.864;2022-12-31T04:25:57;99982.97;;;13.40;100.00
48204;BME280;33994;50.998;5.864;2022-12-31T04:29:00;99984.63;;;13.43;100.00
48204;BME280;33994;50.998;5.864;2022-12-31T04:32:03;99988.03;;;13.45;99.96
48204;BME280;33994;50.998;5.864;2022-12-31T04:35:09;99987.91;;;13.48;99.68
48204;BME280;33994;50.998;5.864;2022-12-31T04:38:13;99990.38;;;13.52;99.32
48204;BME280;33994;50.998;5.864;2022-12-31T04:41:16;99985.19;;;13.51;99.15
48204;BME280;33994;50.998;5.864;2022-12-31T04:44:19;99986.81;;;13.53;99.04
48204;BME280;33994;50.998;5.864;2022-12-31T04:47:22;99971.78;;;13.57;98.69
48204;BME280;33994;50.998;5.864;2022-12-31T04:50:27;99983.97;;;13.59;98.42
48204;BME280;33994;50.998;5.864;2022-12-31T04:53:30;99997.03;;;13.61;98.22
48204;BME280;33994;50.998;5.864;2022-12-31T04:56:33;99998.75;;;13.62;97.92
48204;BME280;33994;50.998;5.864;2022-12-31T04:59:36;99993.50;;;13.62;97.63
48204;BME280;33994;50.998;5.864;2022-12-31T05:02:39;99990.69;;;13.67;97.46
48204;BME280;33994;50.998;5.864;2022-12-31T05:05:44;100010.66;;;13.71;97.15
48204;BME280;33994;50.998;5.864;2022-12-31T05:08:47;99993.97;;;13.72;96.89
48204;BME280;33994;50.998;5.864;2022-12-31T05:11:50;100010.59;;;13.72;96.85
48204;BME280;33994;50.998;5.864;2022-12-31T05:14:53;100013.09;;;13.75;97.01
48204;BME280;33994;50.998;5.864;2022-12-31T05:17:56;99991.22;;;13.75;97.33
48204;BME280;33994;50.998;5.864;2022-12-31T05:21:01;100009.69;;;13.73;97.62
48204;BME280;33994;50.998;5.864;2022-12-31T05:24:05;99983.44;;;13.72;97.92
48204;BME280;33994;50.998;5.864;2022-12-31T05:27:08;100022.94;;;13.70;97.91
48204;BME280;33994;50.998;5.864;2022-12-31T05:30:12;100016.75;;;13.71;97.96
48204;BME280;33994;50.998;5.864;2022-12-31T05:33:15;100014.13;;;13.71;97.91
48204;BME280;33994;50.998;5.864;2022-12-31T05:36:20;100029.72;;;13.76;97.69
48204;BME280;33994;50.998;5.864;2022-12-31T05:39:24;100024.53;;;13.74;97.48
48204;BME280;33994;50.998;5.864;2022-12-31T05:42:27;100027.19;;;13.73;97.46
48204;BME280;33994;50.998;5.864;2022-12-31T05:45:29;100022.69;;;13.76;97.26
48204;BME280;33994;50.998;5.864;2022-12-31T05:48:32;100038.41;;;13.78;97.06
48204;BME280;33994;50.998;5.864;2022-12-31T05:51:37;100044.38;;;13.81;96.83
48204;BME280;33994;50.998;5.864;2022-12-31T05:54:40;100030.19;;;13.85;96.60
48204;BME280;33994;50.998;5.864;2022-12-31T05:57:43;100038.09;;;13.85;96.36
48204;BME280;33994;50.998;5.864;2022-12-31T06:00:47;100046.81;;;13.86;96.07
48204;BME280;33994;50.998;5.864;2022-12-31T06:03:50;100058.06;;;13.90;95.86
48204;BME280;33994;50.998;5.864;2022-12-31T06:06:54;100055.31;;;13.93;95.49
48204;BME280;33994;50.998;5.864;2022-12-31T06:09:57;100057.69;;;13.99;95.42
48204;BME280;33994;50.998;5.864;2022-12-31T06:13:01;100061.25;;;13.98;95.71
48204;BME280;33994;50.998;5.864;2022-12-31T06:16:05;100056.09;;;13.95;96.15
48204;BME280;33994;50.998;5.864;2022-12-31T06:19:08;100056.22;;;13.92;96.02
48204;BME280;33994;50.998;5.864;2022-12-31T06:22:12;100070.28;;;13.91;95.82
48204;BME280;33994;50.998;5.864;2022-12-31T06:25:15;100075.44;;;13.94;95.59
48204;BME280;33994;50.998;5.864;2022-12-31T06:28:19;100057.94;;;13.93;95.49
48204;BME280;33994;50.998;5.864;2022-12-31T06:31:22;100078.13;;;13.92;95.49
48204;BME280;33994;50.998;5.864;2022-12-31T06:34:24;100085.94;;;13.94;95.47
48204;BME280;33994;50.998;5.864;2022-12-31T06:37:29;100089.50;;;13.93;95.64
48204;BME280;33994;50.998;5.864;2022-12-31T06:40:35;100076.41;;;13.91;95.78
48204;BME280;33994;50.998;5.864;2022-12-31T06:43:40;100089.50;;;13.93;95.74
48204;BME280;33994;50.998;5.864;2022-12-31T06:46:43;100082.28;;;13.98;95.61
48204;BME280;33994;50.998;5.864;2022-12-31T06:49:46;100084.91;;;13.98;95.90
48204;BME280;33994;50.998;5.864;2022-12-31T06:52:51;100098.03;;;13.98;95.80
48204;BME280;33994;50.998;5.864;2022-12-31T06:55:54;100090.16;;;13.98;95.41
48204;BME280;33994;50.998;5.864;2022-12-31T06:58:59;100095.28;;;14.01;94.72
48204;BME280;33994;50.998;5.864;2022-12-31T07:02:10;100076.78;;;14.04;94.53
48204;BME280;33994;50.998;5.864;2022-12-31T07:05:26;100086.16;;;14.09;93.77
48204;BME280;33994;50.998;5.864;2022-12-31T07:08:39;100089.59;;;14.11;93.09
48204;BME280;33994;50.998;5.864;2022-12-31T07:11:55;100076.38;;;14.13;92.76
48204;BME280;33994;50.998;5.864;2022-12-31T07:15:05;100085.94;;;14.16;92.51
48204;BME280;33994;50.998;5.864;2022-12-31T07:18:19;100093.75;;;14.17;91.98
48204;BME280;33994;50.998;5.864;2022-12-31T07:21:32;100083.94;;;14.21;91.42
48204;BME280;33994;50.998;5.864;2022-12-31T07:24:38;100091.75;;;14.22;91.24
48204;BME280;33994;50.998;5.864;2022-12-31T07:27:52;100086.50;;;14.22;90.97
48204;BME280;33994;50.998;5.864;2022-12-31T07:31:01;100105.59;;;14.27;90.66
48204;BME280;33994;50.998;5.864;2022-12-31T07:34:10;100107.31;;;14.28;90.36
48204;BME280;33994;50.998;5.864;2022-12-31T07:37:26;100089.81;;;14.27;90.01
48204;BME280;33994;50.998;5.864;2022-12-31T07:40:41;100118.56;;;14.32;89.75
48204;BME280;33994;50.998;5.864;2022-12-31T07:43:56;100100.25;;;14.29;90.01
48204;BME280;33994;50.998;5.864;2022-12-31T07:47:03;100119.69;;;14.26;90.88
48204;BME280;33994;50.998;5.864;2022-12-31T07:50:13;100122.34;;;14.25;91.76
48204;BME280;33994;50.998;5.864;2022-12-31T07:53:17;100116.38;;;14.21;92.06
48204;BME280;33994;50.998;5.864;2022-12-31T07:56:22;100121.75;;;14.18;92.10
48204;BME280;33994;50.998;5.864;2022-12-31T07:59:35;100119.25;;;14.15;92.63
48204;BME280;33994;50.998;5.864;2022-12-31T08:02:56;100119.41;;;14.10;92.71
48204;BME280;33994;50.998;5.864;2022-12-31T08:06:10;100125.72;;;14.06;92.71
48204;BME280;33994;50.998;5.864;2022-12-31T08:09:27;100111.59;;;14.09;92.23
48204;BME280;33994;50.998;5.864;2022-12-31T08:12:38;100124.63;;;14.12;91.73
48204;BME280;33994;50.998;5.864;2022-12-31T08:15:43;100137.59;;;14.17;91.11
48204;BME280;33994;50.998;5.864;2022-12-31T08:18:46;100147.19;;;14.18;90.98
48204;BME280;33994;50.998;5.864;2022-12-31T08:22:02;100142.75;;;14.20;90.93
48204;BME280;33994;50.998;5.864;2022-12-31T08:25:18;100164.56;;;14.22;90.87
48204;BME280;33994;50.998;5.864;2022-12-31T08:28:36;100142.66;;;14.21;90.74
48204;BME280;33994;50.998;5.864;2022-12-31T08:31:49;100158.44;;;14.21;90.63
48204;BME280;33994;50.998;5.864;2022-12-31T08:35:02;100160.09;;;14.24;90.32
48204;BME280;33994;50.998;5.864;2022-12-31T08:38:19;100165.28;;;14.25;90.00
48204;BME280;33994;50.998;5.864;2022-12-31T08:41:29;100162.41;;;14.31;89.76
48204;BME280;33994;50.998;5.864;2022-12-31T08:44:43;100168.44;;;14.33;89.57
48204;BME280;33994;50.998;5.864;2022-12-31T08:47:54;100166.63;;;14.35;89.38
48204;BME280;33994;50.998;5.864;2022-12-31T08:51:00;100180.56;;;14.38;89.42
48204;BME280;33994;50.998;5.864;2022-12-31T08:54:04;100183.19;;;14.38;89.53
48204;BME280;33994;50.998;5.864;2022-12-31T08:57:15;100217.34;;;14.39;89.72
48204;BME280;33994;50.998;5.864;2022-12-31T09:00:25;100204.97;;;14.41;89.59
48204;BME280;33994;50.998;5.864;2022-12-31T09:03:48;100213.75;;;14.42;89.38
48204;BME280;33994;50.998;5.864;2022-12-31T09:06:57;100225.97;;;14.43;89.34
48204;BME280;33994;50.998;5.864;2022-12-31T09:10:07;100241.63;;;14.46;89.20
48204;BME280;33994;50.998;5.864;2022-12-31T09:13:21;100242.41;;;14.48;89.11
48204;BME280;33994;50.998;5.864;2022-12-31T09:16:32;100241.50;;;14.49;88.91
48204;BME280;33994;50.998;5.864;2022-12-31T09:19:41;100256.38;;;14.50;88.87
48204;BME280;33994;50.998;5.864;2022-12-31T09:22:44;100257.16;;;14.52;88.49
48204;BME280;33994;50.998;5.864;2022-12-31T09:25:54;100262.44;;;14.52;88.34
48204;BME280;33994;50.998;5.864;2022-12-31T09:29:05;100275.47;;;14.55;87.89
48204;BME280;33994;50.998;5.864;2022-12-31T09:32:19;100256.94;;;14.58;87.76
48204;BME280;33994;50.998;5.864;2022-12-31T09:35:32;100275.28;;;14.59;87.66
48204;BME280;33994;50.998;5.864;2022-12-31T09:38:43;100278.59;;;14.65;87.61
48204;BME280;33994;50.998;5.864;2022-12-31T09:49:22;100287.94;;;14.73;86.61
48204;BME280;33994;50.998;5.864;2022-12-31T09:52:38;100301.13;;;14.72;86.60
48204;BME280;33994;50.998;5.864;2022-12-31T09:55:48;100296.78;;;14.71;86.61
48204;BME280;33994;50.998;5.864;2022-12-31T09:58:59;100303.84;;;14.70;86.60
48204;BME280;33994;50.998;5.864;2022-12-31T10:02:18;100305.63;;;14.70;86.47
48204;BME280;33994;50.998;5.864;2022-12-31T10:05:41;100300.34;;;14.70;86.35
48204;BME280;33994;50.998;5.864;2022-12-31T10:09:07;100305.53;;;14.71;86.47
48204;BME280;33994;50.998;5.864;2022-12-31T10:16:04;100300.97;;;14.76;85.84
48204;BME280;33994;50.998;5.864;2022-12-31T10:19:42;100296.44;;;14.80;85.46
48204;BME280;33994;50.998;5.864;2022-12-31T10:23:09;100315.59;;;14.83;85.42
48204;BME280;33994;50.998;5.864;2022-12-31T10:26:27;100293.53;;;14.86;85.36
48204;BME280;33994;50.998;5.864;2022-12-31T10:29:41;100302.25;;;14.88;85.17
48204;BME280;33994;50.998;5.864;2022-12-31T10:33:04;100292.44;;;14.92;84.83
48204;BME280;33994;50.998;5.864;2022-12-31T10:36:17;100292.28;;;14.95;84.66
48204;BME280;33994;50.998;5.864;2022-12-31T10:39:36;100281.63;;;14.98;84.16
48204;BME280;33994;50.998;5.864;2022-12-31T10:43:04;100284.81;;;15.06;83.52
48204;BME280;33994;50.998;5.864;2022-12-31T10:46:27;100282.97;;;15.08;83.31
48204;BME280;33994;50.998;5.864;2022-12-31T10:50:07;100287.25;;;15.11;83.22
48204;BME280;33994;50.998;5.864;2022-12-31T10:53:33;100285.34;;;15.14;82.91
48204;BME280;33994;50.998;5.864;2022-12-31T10:57:08;100286.78;;;15.21;82.28
48204;BME280;33994;50.998;5.864;2022-12-31T11:00:17;100303.28;;;15.26;82.12
48204;BME280;33994;50.998;5.864;2022-12-31T11:11:11;100283.78;;;15.30;81.95
48204;BME280;33994;50.998;5.864;2022-12-31T11:14:34;100281.34;;;15.26;81.97
48204;BME280;33994;50.998;5.864;2022-12-31T11:17:52;100277.06;;;15.23;81.90
48204;BME280;33994;50.998;5.864;2022-12-31T11:21:08;100275.47;;;15.19;81.53
48204;BME280;33994;50.998;5.864;2022-12-31T11:24:26;100297.47;;;15.18;81.67
48204;BME280;33994;50.998;5.864;2022-12-31T11:27:46;100302.06;;;15.13;81.83
48204;BME280;33994;50.998;5.864;2022-12-31T11:31:13;100295.91;;;15.14;81.79
48204;BME280;33994;50.998;5.864;2022-12-31T11:34:40;100302.06;;;15.13;81.53
48204;BME280;33994;50.998;5.864;2022-12-31T11:37:46;100316.16;;;15.12;81.50
48204;BME280;33994;50.998;5.864;2022-12-31T11:40:59;100308.25;;;15.12;81.40
48204;BME280;33994;50.998;5.864;2022-12-31T11:44:13;100306.47;;;15.13;81.15
48204;BME280;33994;50.998;5.864;2022-12-31T11:47:38;100309.09;;;15.13;81.33
48204;BME280;33994;50.998;5.864;2022-12-31T11:50:52;100310.88;;;15.12;81.32
48204;BME280;33994;50.998;5.864;2022-12-31T11:57:26;100305.50;;;15.15;82.46
48204;BME280;33994;50.998;5.864;2022-12-31T12:00:33;100313.41;;;15.15;82.20
48204;BME280;33994;50.998;5.864;2022-12-31T12:03:46;100306.34;;;15.16;81.62
48204;BME280;33994;50.998;5.864;2022-12-31T12:06:49;100323.09;;;15.15;81.76
48204;BME280;33994;50.998;5.864;2022-12-31T12:09:54;100326.56;;;15.15;81.57
48204;BME280;33994;50.998;5.864;2022-12-31T12:12:58;100326.50;;;15.17;81.24
48204;BME280;33994;50.998;5.864;2022-12-31T12:16:05;100325.72;;;15.15;81.37
48204;BME280;33994;50.998;5.864;2022-12-31T12:19:16;100309.91;;;15.15;81.13
48204;BME280;33994;50.998;5.864;2022-12-31T12:22:21;100309.00;;;15.16;81.07
48204;BME280;33994;50.998;5.864;2022-12-31T12:25:34;100308.06;;;15.17;80.70
48204;BME280;33994;50.998;5.864;2022-12-31T12:28:43;100308.13;;;15.15;80.47
48204;BME280;33994;50.998;5.864;2022-12-31T12:31:56;100317.00;;;15.13;80.51
48204;BME280;33994;50.998;5.864;2022-12-31T12:35:12;100330.06;;;15.16;80.33
48204;BME280;33994;50.998;5.864;2022-12-31T12:38:17;100338.81;;;15.16;80.39
48204;BME280;33994;50.998;5.864;2022-12-31T12:41:23;100353.69;;;15.17;80.57
48204;BME280;33994;50.998;5.864;2022-12-31T12:44:26;100345.94;;;15.14;81.27
48204;BME280;33994;50.998;5.864;2022-12-31T12:47:30;100351.31;;;15.11;82.37
48204;BME280;33994;50.998;5.864;2022-12-31T12:50:40;100347.16;;;15.05;83.34
48204;BME280;33994;50.998;5.864;2022-12-31T12:53:51;100349.13;;;15.00;84.03
48204;BME280;33994;50.998;5.864;2022-12-31T12:57:04;100334.31;;;14.98;84.42
48204;BME280;33994;50.998;5.864;2022-12-31T13:00:15;100347.59;;;14.95;84.62
48204;BME280;33994;50.998;5.864;2022-12-31T13:07:15;100345.44;;;14.82;84.63
48204;BME280;33994;50.998;5.864;2022-12-31T13:10:32;100360.41;;;14.82;84.54
48204;BME280;33994;50.998;5.864;2022-12-31T13:13:45;100352.59;;;14.79;83.92
48204;BME280;33994;50.998;5.864;2022-12-31T13:16:58;100357.84;;;14.80;82.92
48204;BME280;33994;50.998;5.864;2022-12-31T13:20:12;100345.44;;;14.82;82.69
48204;BME280;33994;50.998;5.864;2022-12-31T13:23:26;100356.09;;;14.79;82.37
48204;BME280;33994;50.998;5.864;2022-12-31T13:26:37;100334.19;;;14.79;82.27
48204;BME280;33994;50.998;5.864;2022-12-31T13:29:45;100335.97;;;14.78;81.51
48204;BME280;33994;50.998;5.864;2022-12-31T13:32:54;100350.06;;;14.77;81.12
48204;BME280;33994;50.998;5.864;2022-12-31T13:36:00;100344.88;;;14.76;80.74
48204;BME280;33994;50.998;5.864;2022-12-31T13:39:12;100339.72;;;14.73;80.60
48204;BME280;33994;50.998;5.864;2022-12-31T13:42:21;100343.19;;;14.73;80.73
48204;BME280;33994;50.998;5.864;2022-12-31T13:45:25;100344.25;;;14.69;80.11
48204;BME280;33994;50.998;5.864;2022-12-31T13:48:34;100352.13;;;14.69;80.17
48204;BME280;33994;50.998;5.864;2022-12-31T13:51:42;100342.53;;;14.68;80.18
48204;BME280;33994;50.998;5.864;2022-12-31T13:54:54;100340.78;;;14.67;80.40
48204;BME280;33994;50.998;5.864;2022-12-31T13:58:04;100325.94;;;14.66;80.81
48204;BME280;33994;50.998;5.864;2022-12-31T14:01:17;100328.72;;;14.62;81.42
48204;BME280;33994;50.998;5.864;2022-12-31T14:04:26;100324.41;;;14.59;81.66
48204;BME280;33994;50.998;5.864;2022-12-31T14:07:35;100313.13;;;14.57;81.95
48204;BME280;33994;50.998;5.864;2022-12-31T14:10:49;100322.03;;;14.53;82.38
48204;BME280;33994;50.998;5.864;2022-12-31T14:14:06;100325.69;;;14.49;82.79
48204;BME280;33994;50.998;5.864;2022-12-31T14:17:16;100331.94;;;14.46;83.50
48204;BME280;33994;50.998;5.864;2022-12-31T14:20:27;100332.00;;;14.45;83.92
48204;BME280;33994;50.998;5.864;2022-12-31T14:23:46;100329.63;;;14.39;84.53
48204;BME280;33994;50.998;5.864;2022-12-31T14:26:56;100340.19;;;14.37;84.95
48204;BME280;33994;50.998;5.864;2022-12-31T14:30:02;100324.56;;;14.32;85.25
48204;BME280;33994;50.998;5.864;2022-12-31T14:33:15;100316.00;;;14.27;85.65
48204;BME280;33994;50.998;5.864;2022-12-31T14:36:29;100323.19;;;14.22;86.01
48204;BME280;33994;50.998;5.864;2022-12-31T14:39:42;100329.38;;;14.21;86.07
48204;BME280;33994;50.998;5.864;2022-12-31T14:43:00;100312.00;;;14.17;86.08
48204;BME280;33994;50.998;5.864;2022-12-31T14:46:13;100325.28;;;14.14;86.38
48204;BME280;33994;50.998;5.864;2022-12-31T14:49:32;100328.03;;;14.11;86.32
48204;BME280;33994;50.998;5.864;2022-12-31T14:52:48;100330.78;;;14.08;86.43
48204;BME280;33994;50.998;5.864;2022-12-31T14:55:59;100333.44;;;14.06;86.38
48204;BME280;33994;50.998;5.864;2022-12-31T14:59:20;100341.41;;;14.05;85.98
48204;BME280;33994;50.998;5.864;2022-12-31T15:02:27;100342.25;;;14.05;85.76
48204;BME280;33994;50.998;5.864;2022-12-31T15:05:32;100344.09;;;14.03;85.52
48204;BME280;33994;50.998;5.864;2022-12-31T15:08:46;100341.47;;;14.03;84.88
48204;BME280;33994;50.998;5.864;2022-12-31T15:12:05;100344.94;;;14.04;84.45
48204;BME280;33994;50.998;5.864;2022-12-31T15:15:27;100342.38;;;14.02;84.01
48204;BME280;33994;50.998;5.864;2022-12-31T15:18:48;100353.69;;;14.04;83.75
48204;BME280;33994;50.998;5.864;2022-12-31T15:22:03;100347.50;;;14.05;83.13
48204;BME280;33994;50.998;5.864;2022-12-31T15:25:21;100344.81;;;14.07;82.53
48204;BME280;33994;50.998;5.864;2022-12-31T15:28:31;100337.00;;;14.05;82.57
48204;BME280;33994;50.998;5.864;2022-12-31T15:31:44;100333.50;;;14.05;82.14
48204;BME280;33994;50.998;5.864;2022-12-31T15:34:59;100332.69;;;14.03;82.15
48204;BME280;33994;50.998;5.864;2022-12-31T15:38:17;100331.00;;;14.02;81.92
48204;BME280;33994;50.998;5.864;2022-12-31T15:41:27;100334.53;;;14.01;81.90
48204;BME280;33994;50.998;5.864;2022-12-31T15:44:35;100337.22;;;13.99;81.72
48204;BME280;33994;50.998;5.864;2022-12-31T15:47:47;100343.34;;;14.00;81.31
48204;BME280;33994;50.998;5.864;2022-12-31T15:50:57;100336.44;;;13.97;81.31
48204;BME280;33994;50.998;5.864;2022-12-31T15:54:01;100346.94;;;13.97;81.25
48204;BME280;33994;50.998;5.864;2022-12-31T15:57:11;100337.28;;;13.98;80.88
48204;BME280;33994;50.998;5.864;2022-12-31T16:00:19;100346.88;;;13.99;80.71
48204;BME280;33994;50.998;5.864;2022-12-31T16:03:26;100350.44;;;13.98;80.63
48204;BME280;33994;50.998;5.864;2022-12-31T16:06:33;100350.44;;;13.98;80.40
48204;BME280;33994;50.998;5.864;2022-12-31T16:09:37;100342.59;;;13.96;80.23
48204;BME280;33994;50.998;5.864;2022-12-31T16:12:41;100337.38;;;13.95;80.11
48204;BME280;33994;50.998;5.864;2022-12-31T16:15:47;100344.50;;;13.93;79.84
48204;BME280;33994;50.998;5.864;2022-12-31T16:18:53;100343.66;;;13.91;79.91
48204;BME280;33994;50.998;5.864;2022-12-31T16:22:01;100338.50;;;13.87;79.84
48204;BME280;33994;50.998;5.864;2022-12-31T16:25:05;100342.91;;;13.87;79.70
48204;BME280;33994;50.998;5.864;2022-12-31T16:28:15;100343.84;;;13.86;79.30
48204;BME280;33994;50.998;5.864;2022-12-31T16:31:19;100340.41;;;13.84;79.26
48204;BME280;33994;50.998;5.864;2022-12-31T16:34:25;100339.50;;;13.85;78.78
48204;BME280;33994;50.998;5.864;2022-12-31T16:37:29;100341.31;;;13.83;78.69
48204;BME280;33994;50.998;5.864;2022-12-31T16:40:33;100338.75;;;13.81;78.39
48204;BME280;33994;50.998;5.864;2022-12-31T16:43:38;100337.03;;;13.80;77.98
48204;BME280;33994;50.998;5.864;2022-12-31T16:46:41;100337.84;;;13.82;77.30
48204;BME280;33994;50.998;5.864;2022-12-31T16:49:48;100337.84;;;13.82;76.45
48204;BME280;33994;50.998;5.864;2022-12-31T16:52:54;100329.03;;;13.83;75.14
48204;BME280;33994;50.998;5.864;2022-12-31T16:56:01;100340.38;;;13.85;75.75